Time,TemperatureF,DewpointF,PressureIn,WindDirection,WindDirectionDegrees,WindSpeedMPH,WindSpeedGustMPH,Humidity,HourlyPrecipIn,Conditions,Clouds,dailyrainin,SoftwareType,DateUTC
2013-08-07 00:02:00,81.0,-99.9,29.98,ESE,121,14.0,16.0,-999,-99.99,,,-99.99,,2013-08-07 05:02:00,
2013-08-07 00:11:00,81.0,-99.9,29.98,SE,124,15.0,17.0,-999,-99.99,,,-99.99,,2013-08-07 05:11:00,
2013-08-07 00:32:00,82.0,-99.9,29.97,SE,127,15.0,17.0,-999,-99.99,,,-99.99,,2013-08-07 05:32:00,
2013-08-07 00:43:00,81.0,-99.9,29.98,SE,128,11.0,13.0,-999,-99.99,,,-99.99,,2013-08-07 05:43:00,
2013-08-07 00:52:00,80.0,-99.9,29.98,ESE,108,10.0,11.0,-999,-99.99,,,-99.99,,2013-08-07 05:52:00,
2013-08-07 01:02:00,80.0,-99.9,29.98,East,94,9.0,12.0,-999,-99.99,,,-99.99,,2013-08-07 06:02:00,
2013-08-07 01:12:00,80.0,-99.9,29.98,East,92,10.0,13.0,-999,-99.99,,,-99.99,,2013-08-07 06:12:00,
2013-08-07 01:32:00,81.0,-99.9,29.96,ESE,106,11.0,14.0,-999,-99.99,,,-99.99,,2013-08-07 06:32:00,
2013-08-07 01:43:00,81.0,-99.9,29.96,ESE,114,12.0,14.0,-999,-99.99,,,-99.99,,2013-08-07 06:43:00,
2013-08-07 01:52:00,81.0,-99.9,29.96,ESE,109,11.0,13.0,-999,-99.99,,,-99.99,,2013-08-07 06:52:00,
2013-08-07 02:01:00,82.0,-99.9,29.95,ESE,117,10.0,12.0,-999,-99.99,,,-99.99,,2013-08-07 07:01:00,
2013-08-07 02:12:00,82.0,-99.9,29.95,SE,125,9.0,10.0,-999,-99.99,,,-99.99,,2013-08-07 07:12:00,
2013-08-07 02:33:00,83.0,-99.9,29.95,SE,129,5.0,6.0,-999,-99.99,,,-99.99,,2013-08-07 07:33:00,
2013-08-07 02:44:00,83.0,-99.9,29.95,SE,133,4.0,5.0,-999,-99.99,,,-99.99,,2013-08-07 07:44:00,
2013-08-07 02:53:00,83.0,-99.9,29.95,East,80,5.0,8.0,-999,-99.99,,,-99.99,,2013-08-07 07:53:00,
2013-08-07 03:02:00,83.0,-99.9,29.95,ENE,72,7.0,8.0,-999,-99.99,,,-99.99,,2013-08-07 08:02:00,
2013-08-07 03:11:00,83.0,-99.9,29.96,East,85,7.0,9.0,-999,-99.99,,,-99.99,,2013-08-07 08:11:00,
2013-08-07 03:32:00,83.0,-99.9,29.95,East,88,4.0,4.0,-999,-99.99,,,-99.99,,2013-08-07 08:32:00,
2013-08-07 03:44:00,83.0,-99.9,29.95,NE,50,3.0,4.0,-999,-99.99,,,-99.99,,2013-08-07 08:44:00,
2013-08-07 03:53:00,83.0,-99.9,29.95,NE,44,3.0,4.0,-999,-99.99,,,-99.99,,2013-08-07 08:53:00,
2013-08-07 04:02:00,83.0,-99.9,29.95,North,358,3.0,4.0,-999,-99.99,,,-99.99,,2013-08-07 09:02:00,
2013-08-07 04:12:00,83.0,-99.9,29.95,NNW,329,4.0,5.0,-999,-99.99,,,-99.99,,2013-08-07 09:12:00,
2013-08-07 04:32:00,83.0,-99.9,29.95,NE,37,3.0,8.0,-999,-99.99,,,-99.99,,2013-08-07 09:32:00,
2013-08-07 04:43:00,83.0,-99.9,29.96,NE,40,7.0,8.0,-999,-99.99,,,-99.99,,2013-08-07 09:43:00,
2013-08-07 04:54:00,82.0,-99.9,29.96,NE,42,7.0,8.0,-999,-99.99,,,-99.99,,2013-08-07 09:54:00,
2013-08-07 05:01:00,82.0,-99.9,29.96,NE,45,9.0,10.0,-999,-99.99,,,-99.99,,2013-08-07 10:01:00,
2013-08-07 05:11:00,82.0,-99.9,29.96,NE,47,7.0,8.0,-999,-99.99,,,-99.99,,2013-08-07 10:11:00,
2013-08-07 05:32:00,82.0,-99.9,29.96,NE,44,5.0,6.0,-999,-99.99,,,-99.99,,2013-08-07 10:32:00,
2013-08-07 05:43:00,82.0,-99.9,29.96,NE,50,5.0,5.0,-999,-99.99,,,-99.99,,2013-08-07 10:43:00,
2013-08-07 05:52:00,82.0,-99.9,29.96,NE,46,4.0,5.0,-999,-99.99,,,-99.99,,2013-08-07 10:52:00,
2013-08-07 06:02:00,82.0,-99.9,29.96,NE,41,4.0,6.0,-999,-99.99,,,-99.99,,2013-08-07 11:02:00,
2013-08-07 06:11:00,82.0,-99.9,29.96,NE,47,6.0,6.0,-999,-99.99,,,-99.99,,2013-08-07 11:11:00,
2013-08-07 06:32:00,83.0,-99.9,29.96,NE,54,7.0,8.0,-999,-99.99,,,-99.99,,2013-08-07 11:32:00,
2013-08-07 06:43:00,82.0,-99.9,29.96,ENE,66,6.0,9.0,-999,-99.99,,,-99.99,,2013-08-07 11:43:00,
2013-08-07 06:53:00,82.0,-99.9,29.97,East,79,8.0,9.0,-999,-99.99,,,-99.99,,2013-08-07 11:53:00,
2013-08-07 07:02:00,82.0,-99.9,29.97,East,79,6.0,9.0,-999,-99.99,,,-99.99,,2013-08-07 12:02:00,
2013-08-07 07:11:00,82.0,-99.9,29.97,East,86,8.0,9.0,-999,-99.99,,,-99.99,,2013-08-07 12:11:00,
2013-08-07 07:33:00,83.0,-99.9,29.98,East,91,6.0,6.0,-999,-99.99,,,-99.99,,2013-08-07 12:33:00,
2013-08-07 07:43:00,83.0,-99.9,29.98,East,82,6.0,7.0,-999,-99.99,,,-99.99,,2013-08-07 12:43:00,
2013-08-07 07:53:00,83.0,-99.9,29.99,ENE,61,5.0,6.0,-999,-99.99,,,-99.99,,2013-08-07 12:53:00,
2013-08-07 08:02:00,83.0,-99.9,29.99,East,80,6.0,7.0,-999,-99.99,,,-99.99,,2013-08-07 13:02:00,
2013-08-07 08:12:00,83.0,-99.9,30.00,ENE,78,6.0,7.0,-999,-99.99,,,-99.99,,2013-08-07 13:12:00,
2013-08-07 08:32:00,83.0,-99.9,30.01,ENE,67,6.0,7.0,-999,-99.99,,,-99.99,,2013-08-07 13:32:00,
2013-08-07 08:44:00,83.0,-99.9,30.01,NE,50,6.0,7.0,-999,-99.99,,,-99.99,,2013-08-07 13:44:00,
2013-08-07 08:53:00,83.0,-99.9,30.01,NE,54,5.0,7.0,-999,-99.99,,,-99.99,,2013-08-07 13:53:00,
2013-08-07 09:02:00,83.0,-99.9,30.01,NE,56,6.0,6.0,-999,-99.99,,,-99.99,,2013-08-07 14:02:00,
2013-08-07 09:12:00,83.0,-99.9,30.01,NE,47,5.0,6.0,-999,-99.99,,,-99.99,,2013-08-07 14:12:00,
2013-08-07 09:33:00,84.0,-99.9,30.01,NE,47,5.0,6.0,-999,-99.99,,,-99.99,,2013-08-07 14:33:00,
2013-08-07 09:43:00,84.0,-99.9,30.01,NE,53,4.0,5.0,-999,-99.99,,,-99.99,,2013-08-07 14:43:00,
2013-08-07 09:52:00,84.0,-99.9,30.01,NE,50,3.0,5.0,-999,-99.99,,,-99.99,,2013-08-07 14:52:00,
2013-08-07 10:13:00,85.0,-99.9,30.01,NE,37,3.0,3.0,-999,-99.99,,,-99.99,,2013-08-07 15:13:00,
2013-08-07 10:33:00,85.0,-99.9,30.01,NNE,23,2.0,5.0,-999,-99.99,,,-99.99,,2013-08-07 15:33:00,
2013-08-07 10:44:00,84.0,-99.9,30.01,NNE,23,4.0,6.0,-999,-99.99,,,-99.99,,2013-08-07 15:44:00,
2013-08-07 10:53:00,84.0,-99.9,30.01,NE,37,4.0,4.0,-999,-99.99,,,-99.99,,2013-08-07 15:53:00,
2013-08-07 11:02:00,85.0,-99.9,30.01,NE,37,3.0,5.0,-999,-99.99,,,-99.99,,2013-08-07 16:02:00,
2013-08-07 11:11:00,85.0,-99.9,30.01,NNE,33,3.0,5.0,-999,-99.99,,,-99.99,,2013-08-07 16:11:00,
2013-08-07 11:33:00,85.0,-99.9,30.03,NE,37,4.0,6.0,-999,-99.99,,,-99.99,,2013-08-07 16:33:00,
2013-08-07 11:43:00,85.0,-99.9,30.02,NE,40,5.0,6.0,-999,-99.99,,,-99.99,,2013-08-07 16:43:00,
2013-08-07 11:53:00,85.0,-99.9,30.03,NE,36,6.0,7.0,-999,-99.99,,,-99.99,,2013-08-07 16:53:00,
2013-08-07 12:02:00,85.0,-99.9,30.02,East,79,6.0,7.0,-999,-99.99,,,-99.99,,2013-08-07 17:02:00,
2013-08-07 12:11:00,85.0,-99.9,30.02,East,81,5.0,7.0,-999,-99.99,,,-99.99,,2013-08-07 17:11:00,
2013-08-07 12:33:00,85.0,-99.9,30.02,East,79,6.0,7.0,-999,-99.99,,,-99.99,,2013-08-07 17:33:00,
2013-08-07 12:43:00,85.0,-99.9,30.02,East,79,6.0,7.0,-999,-99.99,,,-99.99,,2013-08-07 17:43:00,
2013-08-07 12:52:00,85.0,-99.9,30.02,East,79,6.0,7.0,-999,-99.99,,,-99.99,,2013-08-07 17:52:00,
2013-08-07 13:02:00,86.0,-99.9,30.01,NNE,33,4.0,6.0,-999,-99.99,,,-99.99,,2013-08-07 18:02:00,
2013-08-07 13:12:00,86.0,-99.9,30.00,NNE,26,3.0,5.0,-999,-99.99,,,-99.99,,2013-08-07 18:12:00,
2013-08-07 13:32:00,86.0,-99.9,30.00,ESE,103,4.0,5.0,-999,-99.99,,,-99.99,,2013-08-07 18:32:00,
2013-08-07 13:43:00,86.0,-99.9,30.00,SE,133,4.0,8.0,-999,-99.99,,,-99.99,,2013-08-07 18:43:00,
2013-08-07 13:52:00,86.0,-99.9,29.99,SE,136,5.0,9.0,-999,-99.99,,,-99.99,,2013-08-07 18:52:00,
2013-08-07 14:01:00,86.0,-99.9,29.99,SE,138,5.0,9.0,-999,-99.99,,,-99.99,,2013-08-07 19:01:00,
2013-08-07 14:11:00,86.0,-99.9,29.99,SE,142,7.0,9.0,-999,-99.99,,,-99.99,,2013-08-07 19:11:00,
2013-08-07 14:32:00,86.0,-99.9,29.98,SE,129,10.0,11.0,-999,-99.99,,,-99.99,,2013-08-07 19:32:00,
2013-08-07 14:44:00,86.0,-99.9,29.99,SE,145,9.0,12.0,-999,-99.99,,,-99.99,,2013-08-07 19:44:00,
2013-08-07 14:53:00,86.0,-99.9,29.98,ESE,120,13.0,15.0,-999,-99.99,,,-99.99,,2013-08-07 19:53:00,
2013-08-07 15:02:00,85.0,-99.9,29.98,ESE,111,13.0,15.0,-999,-99.99,,,-99.99,,2013-08-07 20:02:00,
2013-08-07 15:11:00,85.0,-99.9,29.98,ESE,122,13.0,14.0,-999,-99.99,,,-99.99,,2013-08-07 20:11:00,
2013-08-07 15:33:00,85.0,-99.9,29.97,SE,141,11.0,12.0,-999,-99.99,,,-99.99,,2013-08-07 20:33:00,
2013-08-07 15:43:00,85.0,-99.9,29.97,SE,144,10.0,12.0,-999,-99.99,,,-99.99,,2013-08-07 20:43:00,
2013-08-07 15:52:00,86.0,-99.9,29.97,SSE,159,10.0,14.0,-999,-99.99,,,-99.99,,2013-08-07 20:52:00,
2013-08-07 16:02:00,86.0,-99.9,29.96,SSE,163,10.0,12.0,-999,-99.99,,,-99.99,,2013-08-07 21:02:00,
2013-08-07 16:11:00,86.0,-99.9,29.96,SSE,160,11.0,11.0,-999,-99.99,,,-99.99,,2013-08-07 21:11:00,
2013-08-07 16:32:00,86.0,-99.9,29.96,South,171,7.0,11.0,-999,-99.99,,,-99.99,,2013-08-07 21:32:00,
2013-08-07 16:43:00,87.0,-99.9,29.96,South,172,8.0,10.0,-999,-99.99,,,-99.99,,2013-08-07 21:43:00,
2013-08-07 16:52:00,86.0,-99.9,29.96,South,175,6.0,9.0,-999,-99.99,,,-99.99,,2013-08-07 21:52:00,
2013-08-07 17:02:00,86.0,-99.9,29.96,South,175,6.0,9.0,-999,-99.99,,,-99.99,,2013-08-07 22:02:00,
2013-08-07 17:12:00,86.0,-99.9,29.96,South,175,6.0,9.0,-999,-99.99,,,-99.99,,2013-08-07 22:12:00,
2013-08-07 17:22:00,86.0,-99.9,29.96,South,175,6.0,9.0,-999,-99.99,,,-99.99,,2013-08-07 22:22:00,
2013-08-07 17:32:00,86.0,-99.9,29.95,SSE,167,6.0,8.0,-999,-99.99,,,-99.99,,2013-08-07 22:32:00,
2013-08-07 17:43:00,86.0,-99.9,29.95,South,187,7.0,9.0,-999,-99.99,,,-99.99,,2013-08-07 22:43:00,
2013-08-07 17:52:00,86.0,-99.9,29.95,South,176,7.0,10.0,-999,-99.99,,,-99.99,,2013-08-07 22:52:00,
2013-08-07 18:02:00,86.0,-99.9,29.95,South,176,7.0,10.0,-999,-99.99,,,-99.99,,2013-08-07 23:02:00,
2013-08-07 18:11:00,86.0,-99.9,29.95,South,176,7.0,10.0,-999,-99.99,,,-99.99,,2013-08-07 23:11:00,
2013-08-07 18:22:00,86.0,-99.9,29.95,South,176,7.0,10.0,-999,-99.99,,,-99.99,,2013-08-07 23:22:00,
2013-08-07 18:32:00,86.0,-99.9,29.94,SSW,199,4.0,6.0,-999,-99.99,,,-99.99,,2013-08-07 23:32:00,
2013-08-07 18:43:00,86.0,-99.9,29.94,South,190,5.0,7.0,-999,-99.99,,,-99.99,,2013-08-07 23:43:00,
2013-08-07 18:52:00,86.0,-99.9,29.94,SW,219,6.0,6.0,-999,-99.99,,,-99.99,,2013-08-07 23:52:00,
2013-08-07 19:01:00,86.0,-99.9,29.94,SSW,212,4.0,6.0,-999,-99.99,,,-99.99,,2013-08-08 00:01:00,
2013-08-07 19:11:00,86.0,-99.9,29.94,SSW,207,4.0,6.0,-999,-99.99,,,-99.99,,2013-08-08 00:11:00,
2013-08-07 19:32:00,86.0,-99.9,29.94,SW,233,3.0,6.0,-999,-99.99,,,-99.99,,2013-08-08 00:32:00,
2013-08-07 19:43:00,86.0,-99.9,29.95,WSW,247,4.0,7.0,-999,-99.99,,,-99.99,,2013-08-08 00:43:00,
2013-08-07 19:53:00,86.0,-99.9,29.95,SW,229,4.0,6.0,-999,-99.99,,,-99.99,,2013-08-08 00:53:00,
2013-08-07 20:02:00,85.0,-99.9,29.95,WSW,249,4.0,6.0,-999,-99.99,,,-99.99,,2013-08-08 01:02:00,
2013-08-07 20:11:00,85.0,-99.9,29.96,WSW,254,4.0,7.0,-999,-99.99,,,-99.99,,2013-08-08 01:11:00,
2013-08-07 20:32:00,85.0,-99.9,29.96,West,272,3.0,4.0,-999,-99.99,,,-99.99,,2013-08-08 01:32:00,
2013-08-07 20:43:00,85.0,-99.9,29.96,West,265,4.0,4.0,-999,-99.99,,,-99.99,,2013-08-08 01:43:00,
2013-08-07 20:53:00,85.0,-99.9,29.96,West,259,2.0,3.0,-999,-99.99,,,-99.99,,2013-08-08 01:53:00,
2013-08-07 21:02:00,85.0,-99.9,29.96,SSW,195,2.0,3.0,-999,-99.99,,,-99.99,,2013-08-08 02:02:00,
2013-08-07 21:11:00,85.0,-99.9,29.96,South,171,2.0,4.0,-999,-99.99,,,-99.99,,2013-08-08 02:11:00,
2013-08-07 21:32:00,85.0,-99.9,29.96,SW,225,2.0,2.0,-999,-99.99,,,-99.99,,2013-08-08 02:32:00,
2013-08-07 21:43:00,85.0,-99.9,29.97,SSW,205,2.0,3.0,-999,-99.99,,,-99.99,,2013-08-08 02:43:00,
2013-08-07 21:52:00,85.0,-99.9,29.97,South,191,2.0,3.0,-999,-99.99,,,-99.99,,2013-08-08 02:52:00,
2013-08-07 22:02:00,85.0,-99.9,29.98,SE,131,3.0,3.0,-999,-99.99,,,-99.99,,2013-08-08 03:02:00,
2013-08-07 22:12:00,85.0,-99.9,29.98,SSW,206,2.0,3.0,-999,-99.99,,,-99.99,,2013-08-08 03:12:00,
2013-08-07 22:32:00,86.0,-99.9,29.98,SE,139,5.0,7.0,-999,-99.99,,,-99.99,,2013-08-08 03:32:00,
2013-08-07 22:43:00,86.0,-99.9,29.98,SE,132,5.0,6.0,-999,-99.99,,,-99.99,,2013-08-08 03:43:00,
2013-08-07 22:52:00,86.0,-99.9,29.98,ESE,118,5.0,6.0,-999,-99.99,,,-99.99,,2013-08-08 03:52:00,
2013-08-07 23:02:00,86.0,-99.9,29.98,SE,129,5.0,6.0,-999,-99.99,,,-99.99,,2013-08-08 04:02:00,
2013-08-07 23:12:00,86.0,-99.9,29.98,ESE,111,5.0,6.0,-999,-99.99,,,-99.99,,2013-08-08 04:12:00,
2013-08-07 23:33:00,85.0,-99.9,29.99,East,89,3.0,4.0,-999,-99.99,,,-99.99,,2013-08-08 04:33:00,
2013-08-07 23:44:00,85.0,-99.9,29.99,ESE,107,3.0,4.0,-999,-99.99,,,-99.99,,2013-08-08 04:44:00,
2013-08-07 23:53:00,85.0,-99.9,29.98,ESE,118,3.0,4.0,-999,-99.99,,,-99.99,,2013-08-08 04:53:00,